Time;durP1;ratioP1;P1;durP2;ratioP2;P2;SDS_P1;SDS_P2;PMS_P1;PMS_P2;Temp;Humidity;BMP_temperature;BMP_pressure;BME280_temperature;BME280_humidity;BME280_pressure;Samples;Min_cycle;Max_cycle;Signal;HPM_P1;HPM_P2
2023/08/26 00:01:32;;;;;;;2.78;0.88;;;15.10;99.90;;;;;;5032495;28;20507;-50
2023/08/26 00:03:58;;;;;;;3.25;0.77;;;15.10;99.90;;;;;;5032321;28;20496;-50
2023/08/26 00:06:24;;;;;;;1.67;0.85;;;15.10;99.90;;;;;;5032280;28;20032;-52
2023/08/26 00:08:52;;;;;;;0.88;0.60;;;15.10;99.90;;;;;;5032255;28;20032;-46
2023/08/26 00:11:18;;;;;;;5.22;1.02;;;15.00;99.90;;;;;;5030732;28;20492;-46
2023/08/26 00:13:44;;;;;;;1.05;0.68;;;15.10;99.90;;;;;;5032097;28;20046;-51
2023/08/26 00:16:11;;;;;;;0.63;0.50;;;15.70;99.90;;;;;;5031755;28;20037;-47
2023/08/26 00:18:37;;;;;;;2.42;0.82;;;15.00;99.90;;;;;;5032177;28;20029;-45
2023/08/26 00:21:03;;;;;;;3.63;0.73;;;14.90;99.90;;;;;;5032051;28;20029;-46
2023/08/26 00:23:31;;;;;;;1.55;0.82;;;14.90;99.90;;;;;;5031726;28;20030;-49
2023/08/26 00:25:57;;;;;;;1.48;0.60;;;14.90;99.90;;;;;;5032191;28;20060;-50
2023/08/26 00:28:23;;;;;;;4.05;0.60;;;14.90;99.90;;;;;;5031764;28;20384;-49
2023/08/26 00:31:06;;;;;;;1.83;0.73;;;14.80;99.90;;;;;;5031957;28;20459;-54
2023/08/26 00:33:32;;;;;;;0.98;0.55;;;14.70;99.90;;;;;;5031736;28;20477;-50
2023/08/26 00:35:57;;;;;;;1.50;0.60;;;14.70;99.90;;;;;;5031501;28;20083;-52
2023/08/26 00:38:24;;;;;;;3.88;1.00;;;14.60;99.90;;;;;;5031741;28;20045;-49
2023/08/26 00:40:50;;;;;;;2.45;0.77;;;;;;;;;;5031623;28;20411;-54
2023/08/26 00:43:15;;;;;;;3.50;1.13;;;14.60;99.90;;;;;;5031664;28;20112;-48
2023/08/26 00:45:43;;;;;;;4.90;0.68;;;14.50;99.90;;;;;;5031492;28;20025;-51
2023/08/26 00:48:11;;;;;;;1.58;0.80;;;14.60;99.90;;;;;;5031614;28;20128;-53
2023/08/26 00:50:41;;;;;;;3.33;0.82;;;14.50;99.90;;;;;;5031227;28;20676;-48
2023/08/26 00:53:08;;;;;;;2.75;0.88;;;14.50;99.90;;;;;;5031558;28;20547;-52
2023/08/26 00:55:36;;;;;;;3.05;0.70;;;14.50;99.90;;;;;;5031715;28;20041;-45
2023/08/26 00:58:02;;;;;;;2.65;0.60;;;14.50;99.90;;;;;;5031300;28;20354;-47
2023/08/26 01:00:29;;;;;;;1.92;0.50;;;14.50;99.90;;;;;;5031236;28;20498;-51
2023/08/26 01:02:55;;;;;;;2.08;0.90;;;14.50;99.90;;;;;;5031085;28;20064;-49
2023/08/26 01:05:22;;;;;;;0.50;0.50;;;14.50;99.90;;;;;;5031252;28;20113;-49
2023/08/26 01:07:48;;;;;;;3.08;0.95;;;13.90;99.90;;;;;;5030698;28;20127;-52
2023/08/26 01:10:14;;;;;;;1.17;0.70;;;14.40;99.90;;;;;;5029284;28;20392;-55
2023/08/26 01:12:57;;;;;;;0.95;0.60;;;15.90;99.90;;;;;;5030666;28;20096;-52
2023/08/26 01:15:25;;;;;;;1.55;0.70;;;14.50;99.90;;;;;;5030765;28;20032;-47
2023/08/26 01:17:51;;;;;;;0.77;0.50;;;13.80;99.90;;;;;;5030950;28;20034;-46
2023/08/26 01:20:17;;;;;;;1.25;0.60;;;14.40;99.90;;;;;;5031069;28;20115;-45
2023/08/26 01:22:46;;;;;;;3.30;0.75;;;14.40;99.90;;;;;;5030863;28;20431;-52
2023/08/26 01:25:12;;;;;;;1.20;0.60;;;14.30;99.90;;;;;;5031017;28;20108;-48
2023/08/26 01:27:37;;;;;;;1.88;0.75;;;14.20;99.90;;;;;;5030682;28;20116;-45
2023/08/26 01:30:05;;;;;;;1.98;0.82;;;14.20;99.90;;;;;;5030866;28;20068;-52
2023/08/26 01:32:56;;;;;;;6.50;0.90;;;14.20;99.90;;;;;;5030712;28;20025;-60
2023/08/26 01:35:32;;;;;;;2.45;1.10;;;14.20;99.90;;;;;;5029686;28;20156;-47
2023/08/26 01:37:59;;;;;;;1.10;0.70;;;14.30;99.90;;;;;;5030672;28;20381;-56
2023/08/26 01:40:26;;;;;;;1.88;0.60;;;14.30;99.90;;;;;;5030573;28;20021;-55
2023/08/26 01:42:54;;;;;;;2.47;0.85;;;14.20;99.90;;;;;;5030509;28;20034;-48
2023/08/26 01:45:20;;;;;;;4.47;1.73;;;14.20;99.90;;;;;;5030881;28;20057;-57
2023/08/26 01:47:45;;;;;;;3.90;1.88;;;14.20;99.90;;;;;;5029154;28;20111;-53
2023/08/26 01:50:11;;;;;;;3.50;1.55;;;14.20;99.90;;;;;;5030248;28;20395;-49
2023/08/26 01:52:37;;;;;;;4.53;0.98;;;14.20;99.90;;;;;;5030465;28;20025;-47
2023/08/26 01:55:03;;;;;;;4.25;0.85;;;14.20;99.90;;;;;;5029875;28;20092;-44
2023/08/26 01:57:28;;;;;;;2.35;0.70;;;14.10;99.90;;;;;;5030351;28;20450;-52
2023/08/26 01:59:54;;;;;;;1.23;0.73;;;14.00;99.90;;;;;;5030098;28;20053;-46
2023/08/26 02:02:20;;;;;;;2.97;0.80;;;14.00;99.90;;;;;;5030375;28;20108;-57
2023/08/26 02:04:45;;;;;;;1.58;1.00;;;14.00;99.90;;;;;;5030210;28;20021;-47
2023/08/26 02:07:12;;;;;;;0.93;0.65;;;14.00;99.90;;;;;;5030180;28;20400;-53
2023/08/26 02:09:37;;;;;;;1.23;0.77;;;14.00;99.90;;;;;;5030308;28;20030;-50
2023/08/26 02:12:03;;;;;;;0.90;0.60;;;13.70;99.90;;;;;;5030253;28;20539;-56
2023/08/26 02:14:29;;;;;;;4.03;0.82;;;14.00;99.90;;;;;;5030232;28;20427;-56
2023/08/26 02:16:54;;;;;;;3.38;1.00;;;14.00;99.90;;;;;;5029953;28;20041;-45
2023/08/26 02:19:20;;;;;;;0.88;0.68;;;14.00;99.90;;;;;;5030221;28;20057;-46
2023/08/26 02:21:46;;;;;;;4.30;0.77;;;14.00;99.90;;;;;;5034045;28;20112;-52
2023/08/26 02:24:11;;;;;;;2.00;0.80;;;12.40;99.90;;;;;;5033840;28;20548;-56
2023/08/26 02:26:37;;;;;;;1.08;0.70;;;13.70;99.90;;;;;;5034061;28;20159;-50
2023/08/26 02:29:03;;;;;;;2.35;1.00;;;14.00;99.90;;;;;;5033856;28;20052;-50
2023/08/26 02:31:29;;;;;;;3.65;1.10;;;14.00;99.90;;;;;;5034101;28;20048;-49
2023/08/26 02:33:54;;;;;;;1.63;0.80;;;12.70;99.90;;;;;;5033917;28;20064;-49
2023/08/26 02:36:20;;;;;;;0.80;0.75;;;14.00;99.90;;;;;;5033498;28;20037;-48
2023/08/26 02:38:45;;;;;;;1.67;0.73;;;14.00;99.90;;;;;;5033599;28;20032;-47
2023/08/26 02:41:11;;;;;;;1.92;0.90;;;14.00;99.90;;;;;;5033683;28;20026;-51
2023/08/26 02:43:37;;;;;;;1.48;0.80;;;13.90;99.90;;;;;;5033682;28;20010;-60
2023/08/26 02:46:03;;;;;;;1.13;0.75;;;14.00;99.90;;;;;;5033500;28;20052;-53
2023/08/26 02:48:30;;;;;;;2.67;0.98;;;13.90;99.90;;;;;;5033717;28;20022;-49
2023/08/26 02:51:00;;;;;;;0.68;0.63;;;13.90;99.90;;;;;;5033714;28;20048;-50
2023/08/26 02:53:28;;;;;;;3.20;0.75;;;13.90;99.90;;;;;;5033387;28;20100;-54
2023/08/26 02:55:55;;;;;;;2.13;0.95;;;13.90;99.90;;;;;;5033561;28;20073;-56
2023/08/26 02:58:21;;;;;;;1.58;1.00;;;13.90;99.90;;;;;;5033390;28;20049;-53
2023/08/26 03:00:47;;;;;;;1.95;0.93;;;14.00;99.90;;;;;;5033371;28;20481;-50
2023/08/26 03:03:13;;;;;;;1.73;0.80;;;12.60;99.90;;;;;;5033275;28;20026;-57
2023/08/26 03:05:39;;;;;;;2.45;0.90;;;13.80;99.90;;;;;;5033254;28;20017;-54
2023/08/26 03:08:05;;;;;;;2.38;1.00;;;13.80;99.90;;;;;;5033039;28;20071;-44
2023/08/26 03:10:31;;;;;;;0.90;0.70;;;13.70;99.90;;;;;;5033369;28;20013;-52
2023/08/26 03:12:57;;;;;;;2.03;1.20;;;13.60;99.90;;;;;;5033074;28;20060;-50
2023/08/26 03:15:27;;;;;;;2.15;0.73;;;12.90;99.90;;;;;;5032920;28;20034;-59
2023/08/26 03:17:53;;;;;;;1.70;0.60;;;13.90;99.90;;;;;;5033077;28;20555;-54
2023/08/26 03:20:19;;;;;;;1.90;0.80;;;13.60;99.90;;;;;;5032871;28;20056;-51
2023/08/26 03:22:45;;;;;;;2.22;0.95;;;13.50;99.90;;;;;;5032920;28;20056;-47
2023/08/26 03:25:11;;;;;;;3.90;1.15;;;13.50;99.90;;;;;;5032891;28;20091;-56
2023/08/26 03:27:37;;;;;;;3.60;0.82;;;14.10;99.90;;;;;;5032645;28;20037;-56
2023/08/26 03:30:03;;;;;;;2.28;0.75;;;13.30;99.90;;;;;;5032972;28;20108;-55
2023/08/26 03:32:28;;;;;;;3.38;1.20;;;12.90;99.90;;;;;;5031670;28;20049;-58
2023/08/26 03:34:54;;;;;;;1.92;1.00;;;13.40;99.90;;;;;;5032661;28;20476;-54
2023/08/26 03:37:20;;;;;;;1.15;0.70;;;13.60;99.90;;;;;;5032598;28;20136;-48
2023/08/26 03:39:45;;;;;;;1.58;0.90;;;13.30;99.90;;;;;;5033236;28;20033;-46
2023/08/26 03:42:11;;;;;;;1.00;0.63;;;12.30;99.90;;;;;;5032848;28;20029;-50
2023/08/26 03:44:36;;;;;;;2.25;0.77;;;13.40;99.90;;;;;;5032611;28;20108;-55
2023/08/26 03:47:02;;;;;;;1.25;0.80;;;13.20;99.90;;;;;;5032619;28;20472;-57
2023/08/26 03:49:28;;;;;;;0.98;0.63;;;14.30;99.90;;;;;;5032440;28;20036;-51
2023/08/26 03:51:54;;;;;;;0.85;0.70;;;13.20;99.90;;;;;;5032426;28;20109;-52
2023/08/26 03:54:19;;;;;;;0.70;0.60;;;12.90;99.90;;;;;;5032464;28;20036;-49
2023/08/26 03:56:45;;;;;;;2.92;0.70;;;13.90;99.90;;;;;;5032025;28;20087;-51
2023/08/26 03:59:10;;;;;;;1.05;0.60;;;13.60;99.90;;;;;;5032187;28;20047;-47
2023/08/26 04:01:36;;;;;;;3.20;0.80;;;14.00;99.90;;;;;;5032052;28;20017;-49
2023/08/26 04:04:02;;;;;;;1.25;0.70;;;14.70;99.90;;;;;;5032165;28;20053;-49
2023/08/26 04:06:27;;;;;;;0.98;0.75;;;14.70;99.90;;;;;;5031882;28;20025;-53
2023/08/26 04:08:53;;;;;;;1.40;0.70;;;11.80;99.90;;;;;;5032109;28;20026;-46
2023/08/26 04:11:19;;;;;;;1.25;0.82;;;;;;;;;;5032010;28;20037;-51
2023/08/26 04:13:48;;;;;;;1.88;0.80;;;12.70;99.90;;;;;;5031653;28;20569;-51
2023/08/26 04:16:15;;;;;;;4.07;0.87;;;12.50;99.90;;;;;;5031999;28;20033;-45
2023/08/26 04:18:42;;;;;;;2.22;0.73;;;13.80;99.90;;;;;;5031498;28;20087;-46
2023/08/26 04:21:09;;;;;;;3.15;1.00;;;13.30;99.90;;;;;;5031842;28;20020;-47
2023/08/26 04:23:34;;;;;;;2.38;0.75;;;13.70;99.90;;;;;;5031781;28;20483;-55
2023/08/26 04:26:00;;;;;;;0.68;0.57;;;11.90;99.90;;;;;;5031483;28;20057;-47
2023/08/26 04:28:27;;;;;;;1.02;0.63;;;13.90;99.90;;;;;;5031891;28;20053;-58
2023/08/26 04:30:52;;;;;;;0.68;0.63;;;13.10;99.90;;;;;;5031637;28;20033;-51
2023/08/26 04:33:19;;;;;;;1.00;0.70;;;11.80;99.90;;;;;;5031575;28;20029;-50
2023/08/26 04:35:45;;;;;;;1.90;0.70;;;;;;;;;;5031257;28;20746;-55
2023/08/26 04:38:13;;;;;;;1.33;0.80;;;;;;;;;;5031509;28;20018;-49
2023/08/26 04:40:41;;;;;;;0.95;0.60;;;;;;;;;;5031376;28;20448;-53
2023/08/26 04:43:13;;;;;;;1.38;0.80;;;13.70;99.90;;;;;;5031120;28;20025;-52
2023/08/26 04:45:40;;;;;;;1.42;0.70;;;14.60;99.90;;;;;;5031371;28;20324;-54
2023/08/26 04:48:07;;;;;;;1.73;0.85;;;13.50;99.90;;;;;;5031168;28;20028;-51
2023/08/26 04:50:32;;;;;;;1.10;0.70;;;15.60;99.90;;;;;;5031644;28;20021;-54
2023/08/26 04:52:58;;;;;;;3.25;1.02;;;13.50;99.90;;;;;;5031270;28;20028;-46
2023/08/26 04:55:24;;;;;;;1.73;0.80;;;11.00;99.90;;;;;;5029985;28;20034;-51
2023/08/26 04:57:49;;;;;;;0.75;0.70;;;11.90;99.90;;;;;;5031227;28;20072;-49
2023/08/26 05:00:16;;;;;;;2.70;0.60;;;11.40;99.90;;;;;;5031356;28;20411;-49
2023/08/26 05:02:42;;;;;;;0.93;0.70;;;;;;;;;;5031437;28;20057;-56
2023/08/26 05:05:08;;;;;;;0.95;0.75;;;11.20;99.90;;;;;;5046474;28;20524;-46
2023/08/26 05:07:34;;;;;;;0.85;0.63;;;13.80;99.90;;;;;;5031215;28;20098;-46
2023/08/26 05:10:03;;;;;;;1.75;0.65;;;11.20;99.90;;;;;;5031123;28;20477;-51
2023/08/26 05:12:29;;;;;;;0.77;0.60;;;13.30;99.90;;;;;;5030894;28;20192;-48
2023/08/26 05:14:55;;;;;;;1.33;0.88;;;10.90;99.90;;;;;;5030891;28;20025;-54
2023/08/26 05:17:20;;;;;;;1.70;0.57;;;12.60;99.90;;;;;;5030994;28;20032;-54
2023/08/26 05:19:46;;;;;;;2.80;0.80;;;12.40;99.90;;;;;;5031033;28;20026;-52
2023/08/26 05:22:12;;;;;;;0.82;0.52;;;13.20;99.90;;;;;;5030813;28;20022;-50
2023/08/26 05:24:38;;;;;;;1.30;0.80;;;11.30;99.90;;;;;;5031001;28;20142;-51
2023/08/26 05:27:04;;;;;;;1.08;0.70;;;12.70;99.90;;;;;;5030944;28;20459;-55
2023/08/26 05:29:29;;;;;;;0.98;0.60;;;10.80;99.90;;;;;;5030545;28;20033;-55
2023/08/26 05:31:55;;;;;;;0.65;0.60;;;13.40;99.90;;;;;;5030893;28;20108;-59
2023/08/26 05:34:20;;;;;;;0.60;0.60;;;11.40;99.90;;;;;;5030685;28;20024;-55
2023/08/26 05:36:46;;;;;;;4.38;1.00;;;12.10;99.90;;;;;;5030583;28;20103;-53
2023/08/26 05:39:12;;;;;;;3.55;0.80;;;12.60;99.90;;;;;;5030378;28;20010;-55
2023/08/26 05:41:37;;;;;;;0.80;0.50;;;12.60;99.90;;;;;;5030589;28;20476;-55
2023/08/26 05:44:03;;;;;;;1.20;0.57;;;12.90;99.90;;;;;;5030263;28;20410;-59
2023/08/26 05:46:29;;;;;;;0.65;0.50;;;12.50;99.90;;;;;;5030357;28;20075;-61
2023/08/26 05:48:55;;;;;;;1.52;0.60;;;;;;;;;;5030514;28;20063;-56
2023/08/26 05:51:20;;;;;;;1.23;0.70;;;12.90;99.90;;;;;;5030187;28;20026;-52
2023/08/26 05:53:46;;;;;;;0.93;0.47;;;13.10;99.90;;;;;;5030425;28;20393;-53
2023/08/26 05:56:12;;;;;;;2.42;0.68;;;13.30;99.90;;;;;;5033484;28;20070;-49
2023/08/26 05:58:37;;;;;;;1.33;0.80;;;12.70;99.90;;;;;;5034567;28;20087;-52
2023/08/26 06:01:03;;;;;;;1.80;0.90;;;11.50;99.90;;;;;;5034428;28;20033;-50
2023/08/26 06:03:29;;;;;;;1.02;0.60;;;13.60;99.90;;;;;;5032867;28;20480;-48
2023/08/26 06:05:55;;;;;;;2.95;0.88;;;13.80;99.90;;;;;;5034570;28;20057;-51
2023/08/26 06:08:20;;;;;;;1.58;1.00;;;13.50;99.90;;;;;;5034362;28;20021;-53
2023/08/26 06:10:46;;;;;;;0.43;0.43;;;13.80;99.90;;;;;;5034363;28;20036;-50
2023/08/26 06:13:11;;;;;;;1.73;0.85;;;11.90;99.90;;;;;;5033932;28;20520;-53
2023/08/26 06:15:38;;;;;;;1.02;0.75;;;11.90;99.90;;;;;;5034093;28;20095;-50
2023/08/26 06:18:04;;;;;;;1.58;0.77;;;13.20;99.90;;;;;;5034460;28;20025;-54
2023/08/26 06:20:29;;;;;;;1.75;0.90;;;10.90;99.90;;;;;;5033964;28;20021;-56
2023/08/26 06:22:55;;;;;;;1.63;0.90;;;;;;;;;;5034083;28;20476;-50
2023/08/26 06:25:21;;;;;;;1.65;0.70;;;11.00;99.90;;;;;;5035059;28;20108;-49
2023/08/26 06:27:46;;;;;;;1.05;0.75;;;13.50;99.90;;;;;;5034907;28;20061;-49
2023/08/26 06:30:12;;;;;;;0.57;0.57;;;14.80;99.90;;;;;;5033795;28;20026;-46
2023/08/26 06:32:38;;;;;;;0.95;0.63;;;12.90;99.90;;;;;;5034066;28;20029;-52
2023/08/26 06:35:04;;;;;;;1.23;0.70;;;14.70;99.90;;;;;;5032228;28;20083;-50
2023/08/26 06:37:30;;;;;;;0.90;0.70;;;15.00;99.90;;;;;;5033834;28;20044;-53
2023/08/26 06:39:55;;;;;;;2.65;0.95;;;14.40;99.90;;;;;;5032304;28;20108;-53
2023/08/26 06:42:21;;;;;;;1.38;0.80;;;16.60;99.90;;;;;;5033875;28;20440;-59
2023/08/26 06:44:47;;;;;;;1.20;0.60;;;16.90;99.90;;;;;;5033273;28;20049;-55
2023/08/26 06:47:13;;;;;;;1.20;0.50;;;16.30;99.90;;;;;;5033586;28;20022;-54
2023/08/26 06:49:38;;;;;;;2.28;0.70;;;19.40;99.90;;;;;;5033543;28;20026;-47
2023/08/26 06:52:04;;;;;;;0.70;0.35;;;17.90;99.90;;;;;;5033451;28;20125;-53
2023/08/26 06:54:30;;;;;;;1.65;0.60;;;17.50;99.90;;;;;;5033330;28;20499;-46
2023/08/26 06:56:55;;;;;;;0.77;0.40;;;17.80;99.90;;;;;;5033377;28;20508;-49
2023/08/26 06:59:21;;;;;;;0.70;0.47;;;17.80;99.90;;;;;;5033256;28;20033;-52
2023/08/26 07:01:46;;;;;;;0.73;0.40;;;17.90;99.90;;;;;;5033285;28;20035;-49
2023/08/26 07:04:12;;;;;;;0.55;0.55;;;18.00;99.90;;;;;;5033590;28;20022;-50
2023/08/26 07:06:38;;;;;;;0.85;0.50;;;18.10;99.90;;;;;;5033062;28;20033;-46
2023/08/26 07:09:05;;;;;;;0.70;0.50;;;18.40;99.90;;;;;;5033387;28;20159;-58
2023/08/26 07:11:31;;;;;;;1.33;0.50;;;18.60;99.90;;;;;;5032241;28;20104;-48
2023/08/26 07:13:58;;;;;;;0.93;0.50;;;19.00;99.90;;;;;;5032113;28;20018;-52
2023/08/26 07:16:25;;;;;;;0.40;0.40;;;19.20;99.90;;;;;;5033155;28;20549;-54
2023/08/26 07:18:51;;;;;;;2.50;0.65;;;19.40;99.90;;;;;;5031349;28;20025;-48
2023/08/26 07:21:16;;;;;;;0.52;0.40;;;19.70;99.90;;;;;;5033039;28;20032;-47
2023/08/26 07:23:42;;;;;;;0.25;0.25;;;18.80;99.90;;;;;;5033026;28;20017;-52
2023/08/26 07:26:07;;;;;;;2.85;0.88;;;20.10;99.90;;;;;;5032667;28;20104;-49
2023/08/26 07:28:33;;;;;;;1.15;0.57;;;20.50;99.90;;;;;;5032894;28;20022;-52
2023/08/26 07:31:04;;;;;;;0.77;0.45;;;20.60;99.90;;;;;;5032643;28;20025;-53
2023/08/26 07:33:30;;;;;;;2.50;0.70;;;20.70;99.90;;;;;;5032538;28;20481;-49
2023/08/26 07:36:06;;;;;;;2.95;0.90;;;21.20;99.90;;;;;;5032677;28;20041;-49
2023/08/26 07:38:33;;;;;;;2.50;1.48;;;21.00;99.90;;;;;;5032687;28;20502;-51
2023/08/26 07:40:59;;;;;;;1.88;0.85;;;21.10;99.90;;;;;;5032187;28;20472;-56
2023/08/26 07:43:24;;;;;;;2.25;1.23;;;21.00;99.90;;;;;;5032801;28;20022;-51
2023/08/26 07:45:50;;;;;;;1.38;0.70;;;21.40;99.90;;;;;;5032146;28;20099;-49
2023/08/26 07:48:16;;;;;;;0.52;0.52;;;22.00;99.90;;;;;;5032540;28;20040;-47
2023/08/26 07:50:42;;;;;;;1.35;0.60;;;21.60;99.90;;;;;;5032527;28;20034;-58
2023/08/26 07:53:07;;;;;;;2.25;0.65;;;21.60;99.90;;;;;;5032482;28;20494;-57
2023/08/26 07:55:33;;;;;;;1.98;0.88;;;21.90;99.90;;;;;;5032226;28;20488;-54
2023/08/26 07:57:59;;;;;;;0.77;0.43;;;22.10;99.90;;;;;;5030922;28;20036;-54
2023/08/26 08:00:24;;;;;;;1.13;0.40;;;22.10;99.90;;;;;;5029898;28;20056;-53
2023/08/26 08:02:50;;;;;;;1.90;0.40;;;21.70;99.90;;;;;;5030372;28;20018;-48
2023/08/26 08:05:16;;;;;;;2.58;0.50;;;22.10;99.90;;;;;;5030193;28;20029;-50
2023/08/26 08:07:42;;;;;;;1.48;0.60;;;22.00;99.90;;;;;;5030104;28;20233;-46
2023/08/26 08:10:11;;;;;;;1.20;0.40;;;22.10;99.90;;;;;;5030264;28;20017;-57
2023/08/26 08:12:36;;;;;;;;;;;22.20;99.90;;;;;;5030603;28;20053;-49
2023/08/26 08:15:03;;;;;;;0.57;0.40;;;23.20;99.90;;;;;;5030811;28;19911;-52
2023/08/26 08:17:30;;;;;;;0.40;0.40;;;;;;;;;;5031600;28;20033;-53
2023/08/26 08:19:55;;;;;;;0.40;0.40;;;23.20;99.90;;;;;;5032067;28;20511;-48
2023/08/26 08:22:37;;;;;;;1.45;0.40;;;22.70;99.90;;;;;;5032051;28;20049;-46
2023/08/26 08:25:03;;;;;;;0.52;0.30;;;22.60;99.90;;;;;;5031927;28;20017;-53
2023/08/26 08:27:30;;;;;;;0.52;0.30;;;22.70;99.90;;;;;;5032015;28;20154;-52
2023/08/26 08:29:57;;;;;;;0.47;0.32;;;22.10;99.90;;;;;;5031916;28;20033;-54
2023/08/26 08:32:22;;;;;;;0.98;0.55;;;22.10;99.90;;;;;;5031853;28;20033;-58
2023/08/26 08:34:48;;;;;;;0.30;0.30;;;20.70;99.90;;;;;;5031724;28;20033;-51
2023/08/26 08:37:14;;;;;;;6.32;0.55;;;21.70;99.90;;;;;;5031532;28;20033;-52
2023/08/26 08:39:39;;;;;;;0.45;0.40;;;21.60;99.90;;;;;;5031554;28;20350;-55
2023/08/26 08:42:08;;;;;;;2.15;0.40;;;22.90;99.90;;;;;;5031777;28;20033;-51
2023/08/26 08:44:37;;;;;;;0.68;0.30;;;19.90;99.90;;;;;;5031544;28;20041;-52
2023/08/26 08:47:05;;;;;;;1.75;0.47;;;23.80;99.90;;;;;;5031692;28;20112;-54
2023/08/26 08:49:33;;;;;;;0.30;0.30;;;23.20;99.90;;;;;;5031255;28;20102;-56
2023/08/26 08:51:59;;;;;;;3.40;0.47;;;20.90;99.90;;;;;;5031497;28;20393;-49
2023/08/26 08:54:29;;;;;;;0.45;0.40;;;23.40;99.90;;;;;;5031322;28;20040;-49
2023/08/26 08:56:56;;;;;;;0.95;0.45;;;24.00;99.90;;;;;;5031543;28;20048;-54
2023/08/26 08:59:22;;;;;;;2.38;0.50;;;23.90;99.90;;;;;;5031536;28;20041;-47
2023/08/26 09:01:48;;;;;;;1.30;0.40;;;24.60;99.90;;;;;;5031016;28;20025;-52
2023/08/26 09:04:14;;;;;;;0.57;0.40;;;;;;;;;;5031381;28;20067;-50
2023/08/26 09:06:40;;;;;;;0.65;0.30;;;24.50;99.90;;;;;;5031259;28;20021;-49
2023/08/26 09:09:12;;;;;;;0.47;0.30;;;24.40;99.90;;;;;;5031265;28;20026;-50
2023/08/26 09:11:38;;;;;;;1.30;0.40;;;25.30;99.90;;;;;;5030880;28;20488;-48
2023/08/26 09:14:05;;;;;;;0.50;0.30;;;25.10;99.90;;;;;;5031232;28;20036;-49
2023/08/26 09:16:35;;;;;;;0.38;0.30;;;25.50;99.90;;;;;;5030938;28;20037;-49
2023/08/26 09:19:03;;;;;;;0.30;0.30;;;25.70;99.90;;;;;;5030950;28;20554;-58
2023/08/26 09:21:28;;;;;;;0.22;0.20;;;25.10;99.90;;;;;;5029904;28;20036;-55
2023/08/26 09:23:54;;;;;;;0.60;0.40;;;24.30;99.90;;;;;;5030076;28;20037;-48
2023/08/26 09:26:23;;;;;;;1.58;0.45;;;22.00;99.90;;;;;;5030344;28;20152;-54
2023/08/26 09:28:53;;;;;;;0.60;0.43;;;21.50;99.90;;;;;;5030440;28;20067;-53
2023/08/26 09:31:19;;;;;;;1.17;0.45;;;21.60;99.90;;;;;;5028756;28;20030;-53
2023/08/26 09:33:50;;;;;;;0.85;0.43;;;19.60;99.90;;;;;;5030741;28;20079;-50
2023/08/26 09:36:15;;;;;;;2.83;0.50;;;20.50;99.90;;;;;;5030576;28;20036;-52
2023/08/26 09:38:47;;;;;;;3.25;0.57;;;18.60;99.90;;;;;;5030369;28;20022;-54
2023/08/26 09:41:19;;;;;;;2.42;0.50;;;20.00;99.90;;;;;;5030491;28;20017;-52
2023/08/26 09:43:48;;;;;;;0.35;0.30;;;20.00;99.90;;;;;;5030479;28;20030;-49
2023/08/26 09:46:20;;;;;;;0.30;0.20;;;19.00;99.90;;;;;;5030401;28;20018;-46
2023/08/26 09:48:49;;;;;;;0.38;0.30;;;20.00;99.90;;;;;;5030684;28;20061;-45
2023/08/26 09:51:26;;;;;;;0.50;0.40;;;20.40;99.90;;;;;;5030329;28;20105;-54
2023/08/26 09:53:54;;;;;;;0.47;0.30;;;19.80;99.90;;;;;;5030345;28;20104;-51
2023/08/26 09:56:23;;;;;;;1.80;0.50;;;20.60;99.90;;;;;;5030149;28;20045;-51
2023/08/26 09:58:48;;;;;;;0.45;0.30;;;20.50;99.90;;;;;;5030475;28;20397;-55
2023/08/26 10:01:14;;;;;;;0.70;0.30;;;20.50;99.90;;;;;;5030156;28;20041;-49
2023/08/26 10:03:44;;;;;;;0.40;0.30;;;19.90;99.90;;;;;;5030169;28;20036;-48
2023/08/26 10:06:12;;;;;;;0.45;0.30;;;20.10;99.90;;;;;;5029127;28;20437;-50
2023/08/26 10:08:41;;;;;;;0.57;0.40;;;19.90;99.90;;;;;;5030110;28;20028;-58
2023/08/26 10:11:10;;;;;;;0.82;0.45;;;20.40;99.90;;;;;;5030467;28;20285;-47
2023/08/26 10:13:36;;;;;;;0.30;0.30;;;21.50;99.90;;;;;;5029676;28;20048;-50
2023/08/26 10:16:05;;;;;;;0.55;0.30;;;20.60;99.90;;;;;;5029593;28;20291;-57
2023/08/26 10:18:39;;;;;;;0.55;0.40;;;19.80;99.90;;;;;;5030478;28;20109;-53
2023/08/26 10:21:04;;;;;;;0.30;0.30;;;22.20;99.90;;;;;;5030129;28;20029;-51
2023/08/26 10:23:31;;;;;;;0.40;0.40;;;22.20;99.90;;;;;;5029975;28;20124;-54
2023/08/26 10:25:58;;;;;;;0.40;0.35;;;20.80;99.90;;;;;;5030173;28;20017;-51
2023/08/26 10:28:25;;;;;;;1.02;0.43;;;22.00;99.90;;;;;;5030130;28;20064;-53
2023/08/26 10:30:53;;;;;;;1.40;0.55;;;19.00;99.90;;;;;;5030097;28;20030;-48
2023/08/26 10:33:19;;;;;;;2.45;0.77;;;21.50;99.90;;;;;;5030163;28;20698;-52
2023/08/26 10:35:58;;;;;;;1.35;0.40;;;21.70;99.90;;;;;;5029783;28;20030;-50
2023/08/26 10:38:24;;;;;;;0.38;0.38;;;;;;;;;;5030109;28;20036;-46
2023/08/26 10:41:10;;;;;;;2.63;0.93;;;22.50;99.90;;;;;;5030671;28;20031;-55
2023/08/26 10:43:36;;;;;;;3.15;0.73;;;24.90;99.90;;;;;;5033701;28;20425;-56
2023/08/26 10:46:02;;;;;;;2.60;0.60;;;;;;;;;;5033700;28;20053;-52
2023/08/26 10:48:28;;;;;;;1.35;0.50;;;;;;;;;;5033704;28;20084;-50
2023/08/26 10:51:01;;;;;;;1.60;0.30;;;24.30;99.90;;;;;;5033739;28;20061;-52
2023/08/26 10:53:27;;;;;;;1.27;0.30;;;24.30;99.90;;;;;;5030662;28;20018;-55
2023/08/26 10:56:10;;;;;;;0.20;0.20;;;26.20;99.90;;;;;;5033514;28;20116;-55
2023/08/26 10:58:43;;;;;;;0.43;0.38;;;23.50;99.90;;;;;;5033244;28;20033;-47
2023/08/26 11:01:10;;;;;;;2.20;0.50;;;23.10;99.90;;;;;;5033507;28;20036;-52
2023/08/26 11:03:37;;;;;;;0.70;0.28;;;24.20;99.90;;;;;;5020763;28;20052;-49
2023/08/26 11:06:05;;;;;;;2.75;0.30;;;24.10;99.90;;;;;;5033321;28;20029;-46
2023/08/26 11:08:31;;;;;;;1.53;0.60;;;26.20;99.90;;;;;;5033149;28;20480;-46
2023/08/26 11:10:57;;;;;;;0.30;0.20;;;24.60;99.90;;;;;;5033386;28;20473;-48
2023/08/26 11:13:24;;;;;;;1.40;0.30;;;24.20;99.90;;;;;;5032903;28;20044;-45
2023/08/26 11:15:51;;;;;;;1.98;0.30;;;24.70;99.90;;;;;;5033010;28;20551;-45
2023/08/26 11:18:17;;;;;;;0.60;0.30;;;24.90;99.90;;;;;;5033246;28;20072;-45
2023/08/26 11:20:44;;;;;;;2.10;0.35;;;25.10;99.90;;;;;;5032960;28;20076;-45
2023/08/26 11:23:10;;;;;;;1.42;0.30;;;24.50;99.90;;;;;;5032792;28;20067;-54
2023/08/26 11:25:37;;;;;;;1.02;0.43;;;24.00;99.90;;;;;;5032907;28;20034;-51
2023/08/26 11:28:04;;;;;;;0.70;0.40;;;23.10;99.90;;;;;;5032542;28;20022;-56
2023/08/26 11:30:30;;;;;;;2.03;0.60;;;22.50;99.90;;;;;;5032958;28;20017;-49
2023/08/26 11:33:05;;;;;;;1.27;0.60;;;19.90;99.90;;;;;;5032782;28;20032;-54
2023/08/26 11:35:31;;;;;;;2.22;0.50;;;22.00;99.90;;;;;;5025589;28;20033;-50
2023/08/26 11:37:57;;;;;;;2.30;0.40;;;21.50;99.90;;;;;;5032726;28;20362;-54
2023/08/26 11:40:23;;;;;;;2.33;0.68;;;21.80;99.90;;;;;;5032611;28;20108;-47
2023/08/26 11:42:48;;;;;;;0.40;0.40;;;21.30;99.90;;;;;;5032996;28;20044;-55
2023/08/26 11:45:14;;;;;;;4.93;0.63;;;;;;;;;;5032893;28;20025;-45
2023/08/26 11:47:40;;;;;;;1.13;0.63;;;19.20;99.90;;;;;;5032782;28;20090;-49
2023/08/26 11:50:08;;;;;;;2.00;0.65;;;21.30;99.90;;;;;;5032635;28;20021;-48
2023/08/26 11:52:35;;;;;;;1.05;0.40;;;18.50;99.90;;;;;;5031627;28;20029;-49
2023/08/26 11:55:06;;;;;;;1.45;0.20;;;20.40;99.90;;;;;;5031905;28;20105;-49
2023/08/26 11:57:35;;;;;;;1.17;0.30;;;19.30;99.90;;;;;;5032395;28;20104;-56
2023/08/26 12:00:16;;;;;;;0.63;0.40;;;21.30;99.90;;;;;;5032581;28;20026;-46
2023/08/26 12:02:46;;;;;;;0.68;0.40;;;20.90;99.90;;;;;;5032328;28;20503;-56
2023/08/26 12:05:14;;;;;;;1.80;0.73;;;19.70;99.90;;;;;;5032244;28;20032;-51
2023/08/26 12:07:48;;;;;;;2.03;0.50;;;18.60;99.90;;;;;;5032223;28;20021;-57
2023/08/26 12:10:17;;;;;;;0.63;0.30;;;19.20;99.90;;;;;;5032094;28;20029;-53
2023/08/26 12:12:44;;;;;;;;;;;18.00;99.90;;;;;;5032323;28;20045;-51
2023/08/26 12:15:18;;;;;;;1.92;0.30;;;17.50;99.90;;;;;;5031769;28;19932;-46
2023/08/26 12:17:45;;;;;;;0.30;0.30;;;17.00;99.90;;;;;;5032068;28;20155;-54
2023/08/26 12:20:25;;;;;;;1.00;0.40;;;18.50;99.90;;;;;;5031880;28;20026;-51
2023/08/26 12:22:52;;;;;;;0.38;0.30;;;19.10;99.90;;;;;;5032003;28;20491;-53
2023/08/26 12:25:33;;;;;;;0.60;0.30;;;19.80;99.90;;;;;;5031943;28;20029;-48
2023/08/26 12:28:14;;;;;;;2.22;0.30;;;20.70;99.90;;;;;;5031733;28;20029;-50
2023/08/26 12:30:42;;;;;;;1.23;0.80;;;20.90;99.90;;;;;;5031634;28;20025;-54
2023/08/26 12:33:09;;;;;;;2.92;0.40;;;20.80;99.90;;;;;;5031499;28;20128;-48
2023/08/26 12:35:36;;;;;;;0.45;0.30;;;20.40;99.90;;;;;;5031250;28;20033;-45
2023/08/26 12:38:02;;;;;;;1.50;0.40;;;21.00;99.90;;;;;;5031367;28;20017;-55
2023/08/26 12:40:37;;;;;;;0.75;0.40;;;20.90;99.90;;;;;;5031780;28;20033;-52
2023/08/26 12:43:04;;;;;;;0.30;0.30;;;20.70;99.90;;;;;;5030915;28;20028;-46
2023/08/26 12:45:34;;;;;;;1.33;0.35;;;21.40;99.90;;;;;;5031445;28;20100;-54
2023/08/26 12:48:01;;;;;;;0.38;0.32;;;20.90;99.90;;;;;;5031398;28;20025;-48
2023/08/26 12:50:27;;;;;;;2.85;0.52;;;18.90;99.90;;;;;;5031479;28;20017;-51
2023/08/26 12:52:52;;;;;;;0.85;0.47;;;23.00;99.90;;;;;;5030013;28;20138;-55